Clio, Alabama
Current Conditions -  °F | °C
As of 7:53 AM on Thursday 29 Jan 2015 (Local Time) from KHEY Reporting Station
Clear Clear  
Wind Chill: 38°   Ceiling: Unl
Heat Index: 41°   Visibility: 10mi
Dew Point: 34°   Wind: 5mph
Humidity: 76%   Direction: 160°SSE
Pressure: 30.31"   Gusts: NA
Location:  31.71°N, 85.61°W
Report Text: KHEY 291353Z AUTO 16004KT 10SM CLR 05/01 A3031 RMK AO2 SLP258 T00500011
Loading
Personal Weather Stations






























Interactive Weather Map New forecast layout! Learn more

10-Day Weather Forecast

Advertisements
Track Severe Weather on mobile